首页
METAR-TAF:

METAR-TAF

机场 :

布赖顿, 英格兰

纬度: 50-50N, 经度: 000-17W, 海拔: 2米

当前天气观测

该预报发布于32分钟前的14:20 UTC
风速15节,风向北转西北
温度 13°C
湿度 82%
气压 1018 hPa
能见度10公里或以上
少量云层高于700英尺
散云层高于1300英尺
附近有阵雨

METAR: EGKA 231420Z 33015KT 9999 VCSH FEW007 SCT013 13/10 Q1018 RESHRA

时间: 14:52 (14:52 UTC)

预报

该预报发布于44分钟前的14:08 UTC
预报有效从23日的 15点(UTC)到 23日的 20点(UTC)
风速18节,风向西转西北,有时为28节阵风
能见度10公里或以上
散云层高于2000英尺
成为
从 23日的 15点(UTC)到 23日的 18点(UTC)
风速10节,风向西转西北
短暂存在
从 23日的 15点(UTC)到 23日的 16点(UTC)
能見度: 6000
多云层高于1400英尺
阵雨, 雨

TAF: EGKA 231408Z 2315/2320 30018G28KT 9999 SCT020 BECMG 2315/2318 30010KT TEMPO 2315/2316 6000 SHRA RA BKN014

超过4000个机场的气象观测和天气预报(METAR&TAF报告)。

可查询的气象台以黄色和红色小点在地图上表示。

将鼠标移到小点上方,可查看气象台名称。

然后点击查看天气观测和预报。

如需切换地图:点击带黑十字的绿色按钮放大地图;点击带横线的绿色按钮缩小地图;或者点击绿色箭头查看邻近地区的地图。


METAR-TAF: